LFBZ/BIQ METAR and TAF weather

Enter ICAO airport designator
Station Type Date Time Source
LFBZ METAR 2019/08/23 17:30 UTC NOAA

LFBZ 231730Z AUTO 09006KT CAVOK 30/19 Q1016 NOSIG


Station Type Date Time Source
LFBZ Decoded METAR 2019/08/23 17:30 UTC NOAA

Station name not available
Aug 23, 2019 - 01:30 PM EDT / 2019.08.23 1730 UTC
Wind: from the E (090 degrees) at 7 MPH (6 KT):0
Visibility: greater than 7 mile(s):0
Temperature: 86 F (30 C)
Dew Point: 66 F (19 C)
Relative Humidity: 51%
Pressure (altimeter): 30.00 in. Hg (1016 hPa)
ob: LFBZ 231730Z AUTO 09006KT CAVOK 30/19 Q1016 NOSIG
cycle: 17

Station Type Date Time Source
LFBZ TAF 2019/08/23 18:21 UTC NOAA

TAF LFBZ 231700Z 2318/2418 09010KT CAVOK
BECMG 2319/2321 VRB03KT
BECMG 2411/2412 29010KT
BECMG 2416/2417 BKN010 PROB30
TEMPO 2416/2418 4000 BR OVC006

Example: see airport list